sensor_id;sensor_type;location;lat;lon;timestamp;P1;durP1;ratioP1;P2;durP2;ratioP2
47912;SDS011;33676;51.006;17.180;2024-02-15T00:02:04;13.10;;;9.30;;
47912;SDS011;33676;51.006;17.180;2024-02-15T00:04:33;14.20;;;10.10;;
47912;SDS011;33676;51.006;17.180;2024-02-15T00:07:02;12.00;;;10.00;;
47912;SDS011;33676;51.006;17.180;2024-02-15T00:09:30;12.90;;;9.90;;
47912;SDS011;33676;51.006;17.180;2024-02-15T00:11:59;15.00;;;10.10;;
47912;SDS011;33676;51.006;17.180;2024-02-15T00:14:28;13.10;;;9.60;;
47912;SDS011;33676;51.006;17.180;2024-02-15T00:16:57;11.20;;;9.70;;
47912;SDS011;33676;51.006;17.180;2024-02-15T00:19:26;16.20;;;10.70;;
47912;SDS011;33676;51.006;17.180;2024-02-15T00:21:58;9.80;;;8.80;;
47912;SDS011;33676;51.006;17.180;2024-02-15T00:24:27;11.60;;;10.00;;
47912;SDS011;33676;51.006;17.180;2024-02-15T00:26:56;13.40;;;10.10;;
47912;SDS011;33676;51.006;17.180;2024-02-15T00:29:25;13.20;;;11.40;;
47912;SDS011;33676;51.006;17.180;2024-02-15T00:31:57;10.70;;;9.60;;
47912;SDS011;33676;51.006;17.180;2024-02-15T00:34:26;13.90;;;10.20;;
47912;SDS011;33676;51.006;17.180;2024-02-15T00:36:55;12.90;;;10.00;;
47912;SDS011;33676;51.006;17.180;2024-02-15T00:39:24;12.80;;;11.20;;
47912;SDS011;33676;51.006;17.180;2024-02-15T00:41:53;13.30;;;11.30;;
47912;SDS011;33676;51.006;17.180;2024-02-15T00:44:22;10.60;;;9.50;;
47912;SDS011;33676;51.006;17.180;2024-02-15T00:46:51;12.70;;;10.70;;
47912;SDS011;33676;51.006;17.180;2024-02-15T00:49:19;13.30;;;9.10;;
47912;SDS011;33676;51.006;17.180;2024-02-15T00:51:51;14.00;;;10.20;;
47912;SDS011;33676;51.006;17.180;2024-02-15T00:54:20;12.30;;;9.80;;
47912;SDS011;33676;51.006;17.180;2024-02-15T00:56:48;13.50;;;10.40;;
47912;SDS011;33676;51.006;17.180;2024-02-15T00:59:17;10.20;;;9.20;;
47912;SDS011;33676;51.006;17.180;2024-02-15T01:01:48;10.20;;;9.20;;
47912;SDS011;33676;51.006;17.180;2024-02-15T01:04:17;10.40;;;9.40;;
47912;SDS011;33676;51.006;17.180;2024-02-15T01:06:46;10.00;;;8.90;;
47912;SDS011;33676;51.006;17.180;2024-02-15T01:09:14;12.10;;;9.30;;
47912;SDS011;33676;51.006;17.180;2024-02-15T01:11:43;11.10;;;8.70;;
47912;SDS011;33676;51.006;17.180;2024-02-15T01:14:11;10.70;;;9.70;;
47912;SDS011;33676;51.006;17.180;2024-02-15T01:16:40;10.80;;;9.60;;
47912;SDS011;33676;51.006;17.180;2024-02-15T01:19:09;16.10;;;10.30;;
47912;SDS011;33676;51.006;17.180;2024-02-15T01:21:38;13.70;;;9.40;;
47912;SDS011;33676;51.006;17.180;2024-02-15T01:24:07;10.20;;;9.20;;
47912;SDS011;33676;51.006;17.180;2024-02-15T01:26:35;10.20;;;9.20;;
47912;SDS011;33676;51.006;17.180;2024-02-15T01:29:04;12.20;;;9.40;;
47912;SDS011;33676;51.006;17.180;2024-02-15T01:31:33;11.00;;;9.70;;
47912;SDS011;33676;51.006;17.180;2024-02-15T01:34:01;11.10;;;10.00;;
47912;SDS011;33676;51.006;17.180;2024-02-15T01:36:31;10.70;;;9.20;;
47912;SDS011;33676;51.006;17.180;2024-02-15T01:39:00;14.60;;;10.30;;
47912;SDS011;33676;51.006;17.180;2024-02-15T01:41:29;11.10;;;10.00;;
47912;SDS011;33676;51.006;17.180;2024-02-15T01:43:58;14.50;;;10.50;;
47912;SDS011;33676;51.006;17.180;2024-02-15T01:46:26;9.80;;;8.70;;
47912;SDS011;33676;51.006;17.180;2024-02-15T01:48:58;10.50;;;9.10;;
47912;SDS011;33676;51.006;17.180;2024-02-15T01:51:27;11.60;;;10.40;;
47912;SDS011;33676;51.006;17.180;2024-02-15T01:53:55;12.80;;;9.70;;
47912;SDS011;33676;51.006;17.180;2024-02-15T01:56:25;12.10;;;10.40;;
47912;SDS011;33676;51.006;17.180;2024-02-15T01:58:55;11.10;;;9.60;;
47912;SDS011;33676;51.006;17.180;2024-02-15T02:01:23;12.00;;;10.00;;
47912;SDS011;33676;51.006;17.180;2024-02-15T02:03:52;10.60;;;9.40;;
47912;SDS011;33676;51.006;17.180;2024-02-15T02:06:21;9.80;;;8.80;;
47912;SDS011;33676;51.006;17.180;2024-02-15T02:08:50;11.50;;;9.70;;
47912;SDS011;33676;51.006;17.180;2024-02-15T02:11:19;11.10;;;9.20;;
47912;SDS011;33676;51.006;17.180;2024-02-15T02:13:48;9.80;;;8.90;;
47912;SDS011;33676;51.006;17.180;2024-02-15T02:16:31;12.10;;;10.40;;
47912;SDS011;33676;51.006;17.180;2024-02-15T02:19:00;9.80;;;8.90;;
47912;SDS011;33676;51.006;17.180;2024-02-15T02:21:29;12.10;;;10.70;;
47912;SDS011;33676;51.006;17.180;2024-02-15T02:23:58;10.30;;;9.40;;
47912;SDS011;33676;51.006;17.180;2024-02-15T02:26:29;9.80;;;8.90;;
47912;SDS011;33676;51.006;17.180;2024-02-15T02:28:59;9.90;;;8.80;;
47912;SDS011;33676;51.006;17.180;2024-02-15T02:31:27;10.10;;;9.00;;
47912;SDS011;33676;51.006;17.180;2024-02-15T02:33:56;13.60;;;11.00;;
47912;SDS011;33676;51.006;17.180;2024-02-15T02:36:26;11.80;;;10.60;;
47912;SDS011;33676;51.006;17.180;2024-02-15T02:38:56;13.40;;;10.50;;
47912;SDS011;33676;51.006;17.180;2024-02-15T02:41:29;11.70;;;9.50;;
47912;SDS011;33676;51.006;17.180;2024-02-15T02:43:58;9.80;;;8.60;;
47912;SDS011;33676;51.006;17.180;2024-02-15T02:46:26;11.30;;;9.70;;
47912;SDS011;33676;51.006;17.180;2024-02-15T02:48:55;11.50;;;10.40;;
47912;SDS011;33676;51.006;17.180;2024-02-15T02:51:24;11.50;;;10.20;;
47912;SDS011;33676;51.006;17.180;2024-02-15T02:53:52;10.10;;;9.10;;
47912;SDS011;33676;51.006;17.180;2024-02-15T02:56:21;9.90;;;9.10;;
47912;SDS011;33676;51.006;17.180;2024-02-15T02:58:49;12.20;;;10.40;;
47912;SDS011;33676;51.006;17.180;2024-02-15T03:01:19;12.10;;;10.30;;
47912;SDS011;33676;51.006;17.180;2024-02-15T03:03:50;12.20;;;9.80;;
47912;SDS011;33676;51.006;17.180;2024-02-15T03:06:20;11.00;;;9.90;;
47912;SDS011;33676;51.006;17.180;2024-02-15T03:08:48;9.80;;;8.80;;
47912;SDS011;33676;51.006;17.180;2024-02-15T03:11:18;11.70;;;10.50;;
47912;SDS011;33676;51.006;17.180;2024-02-15T03:13:47;10.90;;;9.40;;
47912;SDS011;33676;51.006;17.180;2024-02-15T03:16:16;12.20;;;10.30;;
47912;SDS011;33676;51.006;17.180;2024-02-15T03:18:45;10.10;;;9.00;;
47912;SDS011;33676;51.006;17.180;2024-02-15T03:21:13;11.50;;;10.30;;
47912;SDS011;33676;51.006;17.180;2024-02-15T03:23:42;11.30;;;10.00;;
47912;SDS011;33676;51.006;17.180;2024-02-15T03:26:10;12.00;;;10.20;;
47912;SDS011;33676;51.006;17.180;2024-02-15T03:28:40;10.60;;;9.70;;
47912;SDS011;33676;51.006;17.180;2024-02-15T03:31:08;11.30;;;8.80;;
47912;SDS011;33676;51.006;17.180;2024-02-15T03:33:37;9.50;;;8.70;;
47912;SDS011;33676;51.006;17.180;2024-02-15T03:36:07;11.00;;;8.50;;
47912;SDS011;33676;51.006;17.180;2024-02-15T03:38:38;8.80;;;8.00;;
47912;SDS011;33676;51.006;17.180;2024-02-15T03:41:07;8.90;;;8.10;;
47912;SDS011;33676;51.006;17.180;2024-02-15T03:43:35;10.00;;;8.30;;
47912;SDS011;33676;51.006;17.180;2024-02-15T03:46:04;11.70;;;10.00;;
47912;SDS011;33676;51.006;17.180;2024-02-15T03:48:33;10.20;;;9.30;;
47912;SDS011;33676;51.006;17.180;2024-02-15T03:51:01;10.50;;;9.50;;
47912;SDS011;33676;51.006;17.180;2024-02-15T03:53:31;9.60;;;8.80;;
47912;SDS011;33676;51.006;17.180;2024-02-15T03:56:02;10.60;;;8.70;;
47912;SDS011;33676;51.006;17.180;2024-02-15T03:58:31;10.70;;;9.20;;
47912;SDS011;33676;51.006;17.180;2024-02-15T04:01:01;9.10;;;8.10;;
47912;SDS011;33676;51.006;17.180;2024-02-15T04:03:30;10.10;;;9.10;;
47912;SDS011;33676;51.006;17.180;2024-02-15T04:06:01;10.70;;;8.80;;
47912;SDS011;33676;51.006;17.180;2024-02-15T04:08:29;10.50;;;9.60;;
47912;SDS011;33676;51.006;17.180;2024-02-15T04:10:58;9.90;;;9.00;;
47912;SDS011;33676;51.006;17.180;2024-02-15T04:13:27;14.50;;;8.90;;
47912;SDS011;33676;51.006;17.180;2024-02-15T04:15:56;9.60;;;8.70;;
47912;SDS011;33676;51.006;17.180;2024-02-15T04:18:25;12.40;;;11.10;;
47912;SDS011;33676;51.006;17.180;2024-02-15T04:20:53;12.40;;;10.00;;
47912;SDS011;33676;51.006;17.180;2024-02-15T04:23:22;12.70;;;10.50;;
47912;SDS011;33676;51.006;17.180;2024-02-15T04:25:51;12.10;;;10.10;;
47912;SDS011;33676;51.006;17.180;2024-02-15T04:28:20;11.40;;;9.50;;
47912;SDS011;33676;51.006;17.180;2024-02-15T04:30:49;9.80;;;8.70;;
47912;SDS011;33676;51.006;17.180;2024-02-15T04:33:18;10.60;;;9.60;;
47912;SDS011;33676;51.006;17.180;2024-02-15T04:35:48;10.40;;;9.40;;
47912;SDS011;33676;51.006;17.180;2024-02-15T04:38:18;17.20;;;8.40;;
47912;SDS011;33676;51.006;17.180;2024-02-15T04:40:47;10.60;;;8.50;;
47912;SDS011;33676;51.006;17.180;2024-02-15T04:43:16;8.80;;;7.90;;
47912;SDS011;33676;51.006;17.180;2024-02-15T04:45:44;10.10;;;9.10;;
47912;SDS011;33676;51.006;17.180;2024-02-15T04:48:14;8.60;;;7.80;;
47912;SDS011;33676;51.006;17.180;2024-02-15T04:50:47;9.10;;;8.20;;
47912;SDS011;33676;51.006;17.180;2024-02-15T04:53:16;9.90;;;8.80;;
47912;SDS011;33676;51.006;17.180;2024-02-15T04:55:44;7.80;;;7.10;;
47912;SDS011;33676;51.006;17.180;2024-02-15T04:58:13;9.10;;;8.20;;
47912;SDS011;33676;51.006;17.180;2024-02-15T05:00:41;8.60;;;7.80;;
47912;SDS011;33676;51.006;17.180;2024-02-15T05:03:10;8.70;;;7.80;;
47912;SDS011;33676;51.006;17.180;2024-02-15T05:05:39;7.40;;;6.70;;
47912;SDS011;33676;51.006;17.180;2024-02-15T05:08:08;8.90;;;8.00;;
47912;SDS011;33676;51.006;17.180;2024-02-15T05:10:37;8.40;;;7.50;;
47912;SDS011;33676;51.006;17.180;2024-02-15T05:13:07;9.50;;;8.60;;
47912;SDS011;33676;51.006;17.180;2024-02-15T05:15:36;9.30;;;8.40;;
47912;SDS011;33676;51.006;17.180;2024-02-15T05:18:04;9.90;;;8.90;;
47912;SDS011;33676;51.006;17.180;2024-02-15T05:20:36;9.90;;;8.70;;
47912;SDS011;33676;51.006;17.180;2024-02-15T05:23:07;9.50;;;8.50;;
47912;SDS011;33676;51.006;17.180;2024-02-15T05:25:35;10.70;;;8.70;;
47912;SDS011;33676;51.006;17.180;2024-02-15T05:28:04;9.40;;;8.50;;
47912;SDS011;33676;51.006;17.180;2024-02-15T05:30:37;10.30;;;9.10;;
47912;SDS011;33676;51.006;17.180;2024-02-15T05:33:08;10.30;;;9.30;;
47912;SDS011;33676;51.006;17.180;2024-02-15T05:35:39;9.60;;;8.70;;
47912;SDS011;33676;51.006;17.180;2024-02-15T05:38:08;9.90;;;8.90;;
47912;SDS011;33676;51.006;17.180;2024-02-15T05:40:36;9.30;;;8.40;;
47912;SDS011;33676;51.006;17.180;2024-02-15T05:43:05;11.50;;;10.40;;
47912;SDS011;33676;51.006;17.180;2024-02-15T05:45:34;8.80;;;8.00;;
47912;SDS011;33676;51.006;17.180;2024-02-15T05:48:05;9.80;;;8.90;;
47912;SDS011;33676;51.006;17.180;2024-02-15T05:50:36;10.90;;;9.90;;
47912;SDS011;33676;51.006;17.180;2024-02-15T05:53:05;9.70;;;8.80;;
47912;SDS011;33676;51.006;17.180;2024-02-15T05:55:36;10.10;;;9.10;;
47912;SDS011;33676;51.006;17.180;2024-02-15T05:58:06;10.70;;;9.60;;
47912;SDS011;33676;51.006;17.180;2024-02-15T06:00:37;11.20;;;10.10;;
47912;SDS011;33676;51.006;17.180;2024-02-15T06:03:10;11.00;;;9.90;;
47912;SDS011;33676;51.006;17.180;2024-02-15T06:05:40;10.50;;;9.50;;
47912;SDS011;33676;51.006;17.180;2024-02-15T06:08:11;11.20;;;10.10;;
47912;SDS011;33676;51.006;17.180;2024-02-15T06:10:42;11.40;;;9.90;;
47912;SDS011;33676;51.006;17.180;2024-02-15T06:13:11;10.30;;;9.30;;
47912;SDS011;33676;51.006;17.180;2024-02-15T06:15:41;12.40;;;10.10;;
47912;SDS011;33676;51.006;17.180;2024-02-15T06:18:12;11.00;;;9.90;;
47912;SDS011;33676;51.006;17.180;2024-02-15T06:20:43;10.10;;;9.10;;
47912;SDS011;33676;51.006;17.180;2024-02-15T06:23:13;12.00;;;10.00;;
47912;SDS011;33676;51.006;17.180;2024-02-15T06:25:43;12.50;;;10.10;;
47912;SDS011;33676;51.006;17.180;2024-02-15T06:28:12;9.50;;;8.70;;
47912;SDS011;33676;51.006;17.180;2024-02-15T06:30:59;10.10;;;8.60;;
47912;SDS011;33676;51.006;17.180;2024-02-15T06:33:46;9.70;;;8.40;;
47912;SDS011;33676;51.006;17.180;2024-02-15T06:36:34;9.60;;;8.70;;
47912;SDS011;33676;51.006;17.180;2024-02-15T06:39:40;11.30;;;9.90;;
47912;SDS011;33676;51.006;17.180;2024-02-15T06:42:15;9.40;;;8.60;;
47912;SDS011;33676;51.006;17.180;2024-02-15T06:44:47;11.00;;;9.50;;
47912;SDS011;33676;51.006;17.180;2024-02-15T06:47:17;10.70;;;9.50;;
47912;SDS011;33676;51.006;17.180;2024-02-15T06:49:47;10.40;;;9.40;;
47912;SDS011;33676;51.006;17.180;2024-02-15T06:52:20;10.70;;;9.60;;
47912;SDS011;33676;51.006;17.180;2024-02-15T06:54:49;11.20;;;10.20;;
47912;SDS011;33676;51.006;17.180;2024-02-15T06:57:19;11.50;;;10.30;;
47912;SDS011;33676;51.006;17.180;2024-02-15T06:59:48;11.70;;;10.50;;
47912;SDS011;33676;51.006;17.180;2024-02-15T07:02:18;15.10;;;12.10;;
47912;SDS011;33676;51.006;17.180;2024-02-15T07:04:46;11.00;;;9.70;;
47912;SDS011;33676;51.006;17.180;2024-02-15T07:07:17;11.00;;;9.10;;
47912;SDS011;33676;51.006;17.180;2024-02-15T07:09:45;10.50;;;9.50;;
47912;SDS011;33676;51.006;17.180;2024-02-15T07:12:14;11.10;;;10.00;;
47912;SDS011;33676;51.006;17.180;2024-02-15T07:14:43;10.70;;;9.70;;
47912;SDS011;33676;51.006;17.180;2024-02-15T07:17:12;11.80;;;8.50;;
47912;SDS011;33676;51.006;17.180;2024-02-15T07:19:43;10.60;;;9.40;;
47912;SDS011;33676;51.006;17.180;2024-02-15T07:22:13;12.80;;;10.90;;
47912;SDS011;33676;51.006;17.180;2024-02-15T07:24:41;11.20;;;9.90;;
47912;SDS011;33676;51.006;17.180;2024-02-15T07:27:10;9.60;;;8.80;;
47912;SDS011;33676;51.006;17.180;2024-02-15T07:29:40;10.50;;;9.30;;
47912;SDS011;33676;51.006;17.180;2024-02-15T07:32:09;10.70;;;9.70;;
47912;SDS011;33676;51.006;17.180;2024-02-15T07:34:38;10.00;;;9.10;;
47912;SDS011;33676;51.006;17.180;2024-02-15T07:37:06;12.30;;;9.70;;
47912;SDS011;33676;51.006;17.180;2024-02-15T07:39:35;9.80;;;9.00;;
47912;SDS011;33676;51.006;17.180;2024-02-15T07:42:05;9.90;;;8.20;;
47912;SDS011;33676;51.006;17.180;2024-02-15T07:44:35;11.80;;;8.40;;
47912;SDS011;33676;51.006;17.180;2024-02-15T07:47:05;9.10;;;8.10;;
47912;SDS011;33676;51.006;17.180;2024-02-15T07:49:33;9.30;;;8.50;;
47912;SDS011;33676;51.006;17.180;2024-02-15T07:52:03;8.50;;;7.70;;
47912;SDS011;33676;51.006;17.180;2024-02-15T07:54:32;9.10;;;8.30;;
47912;SDS011;33676;51.006;17.180;2024-02-15T07:57:02;10.40;;;9.30;;
47912;SDS011;33676;51.006;17.180;2024-02-15T07:59:36;10.00;;;9.00;;
47912;SDS011;33676;51.006;17.180;2024-02-15T08:02:09;8.50;;;7.60;;
47912;SDS011;33676;51.006;17.180;2024-02-15T08:04:37;13.60;;;8.80;;
47912;SDS011;33676;51.006;17.180;2024-02-15T08:07:09;10.90;;;9.90;;
47912;SDS011;33676;51.006;17.180;2024-02-15T08:09:42;10.20;;;9.20;;
47912;SDS011;33676;51.006;17.180;2024-02-15T08:12:12;8.90;;;8.20;;
47912;SDS011;33676;51.006;17.180;2024-02-15T08:14:40;10.20;;;9.20;;
47912;SDS011;33676;51.006;17.180;2024-02-15T08:17:11;9.60;;;8.70;;
47912;SDS011;33676;51.006;17.180;2024-02-15T08:19:40;8.20;;;7.40;;
47912;SDS011;33676;51.006;17.180;2024-02-15T08:22:14;9.70;;;8.80;;
47912;SDS011;33676;51.006;17.180;2024-02-15T08:24:43;9.40;;;8.60;;
47912;SDS011;33676;51.006;17.180;2024-02-15T08:27:12;9.70;;;8.90;;
47912;SDS011;33676;51.006;17.180;2024-02-15T08:29:41;9.40;;;8.50;;
47912;SDS011;33676;51.006;17.180;2024-02-15T08:32:09;9.30;;;8.50;;
47912;SDS011;33676;51.006;17.180;2024-02-15T08:34:39;8.30;;;7.10;;
47912;SDS011;33676;51.006;17.180;2024-02-15T08:37:08;8.60;;;7.80;;
47912;SDS011;33676;51.006;17.180;2024-02-15T08:39:37;8.20;;;7.40;;
47912;SDS011;33676;51.006;17.180;2024-02-15T08:42:06;7.60;;;6.70;;
47912;SDS011;33676;51.006;17.180;2024-02-15T08:44:34;8.20;;;7.50;;
47912;SDS011;33676;51.006;17.180;2024-02-15T08:47:03;7.90;;;7.20;;
47912;SDS011;33676;51.006;17.180;2024-02-15T08:49:33;13.00;;;7.10;;
47912;SDS011;33676;51.006;17.180;2024-02-15T08:52:02;9.40;;;7.40;;
47912;SDS011;33676;51.006;17.180;2024-02-15T08:54:32;9.10;;;7.90;;
47912;SDS011;33676;51.006;17.180;2024-02-15T08:57:01;8.70;;;7.90;;
47912;SDS011;33676;51.006;17.180;2024-02-15T08:59:30;7.90;;;7.00;;
47912;SDS011;33676;51.006;17.180;2024-02-15T09:01:58;8.20;;;7.40;;
47912;SDS011;33676;51.006;17.180;2024-02-15T09:04:28;7.60;;;7.00;;
47912;SDS011;33676;51.006;17.180;2024-02-15T09:06:58;9.50;;;8.10;;
47912;SDS011;33676;51.006;17.180;2024-02-15T09:09:26;9.30;;;8.50;;
47912;SDS011;33676;51.006;17.180;2024-02-15T09:11:55;8.30;;;7.60;;
47912;SDS011;33676;51.006;17.180;2024-02-15T09:14:24;8.60;;;7.70;;
47912;SDS011;33676;51.006;17.180;2024-02-15T09:16:52;9.30;;;8.10;;
47912;SDS011;33676;51.006;17.180;2024-02-15T09:19:21;10.60;;;8.70;;
47912;SDS011;33676;51.006;17.180;2024-02-15T09:21:49;9.30;;;8.30;;
47912;SDS011;33676;51.006;17.180;2024-02-15T09:24:18;10.10;;;9.00;;
47912;SDS011;33676;51.006;17.180;2024-02-15T09:26:47;10.70;;;9.70;;
47912;SDS011;33676;51.006;17.180;2024-02-15T09:29:15;9.60;;;8.70;;
47912;SDS011;33676;51.006;17.180;2024-02-15T09:31:44;9.40;;;8.10;;
47912;SDS011;33676;51.006;17.180;2024-02-15T09:34:15;8.90;;;8.20;;
47912;SDS011;33676;51.006;17.180;2024-02-15T09:36:44;8.10;;;7.30;;
47912;SDS011;33676;51.006;17.180;2024-02-15T09:39:14;9.40;;;8.50;;
47912;SDS011;33676;51.006;17.180;2024-02-15T09:41:43;8.10;;;7.40;;
47912;SDS011;33676;51.006;17.180;2024-02-15T09:44:11;9.30;;;8.40;;
47912;SDS011;33676;51.006;17.180;2024-02-15T09:46:45;11.40;;;9.20;;
47912;SDS011;33676;51.006;17.180;2024-02-15T09:49:17;9.70;;;8.70;;
47912;SDS011;33676;51.006;17.180;2024-02-15T09:51:46;13.10;;;11.70;;
47912;SDS011;33676;51.006;17.180;2024-02-15T09:54:17;13.80;;;12.30;;
47912;SDS011;33676;51.006;17.180;2024-02-15T09:56:50;11.00;;;10.30;;
47912;SDS011;33676;51.006;17.180;2024-02-15T09:59:20;11.80;;;10.80;;
47912;SDS011;33676;51.006;17.180;2024-02-15T10:01:50;9.60;;;8.80;;
47912;SDS011;33676;51.006;17.180;2024-02-15T10:04:26;9.60;;;8.30;;
47912;SDS011;33676;51.006;17.180;2024-02-15T10:06:55;9.40;;;7.80;;
47912;SDS011;33676;51.006;17.180;2024-02-15T10:09:27;11.20;;;9.90;;
47912;SDS011;33676;51.006;17.180;2024-02-15T10:11:59;9.20;;;8.30;;
47912;SDS011;33676;51.006;17.180;2024-02-15T10:14:29;10.00;;;8.70;;
47912;SDS011;33676;51.006;17.180;2024-02-15T10:17:05;9.50;;;8.40;;
47912;SDS011;33676;51.006;17.180;2024-02-15T10:19:39;11.00;;;8.40;;
47912;SDS011;33676;51.006;17.180;2024-02-15T10:22:10;10.30;;;8.80;;
47912;SDS011;33676;51.006;17.180;2024-02-15T10:24:39;9.50;;;8.40;;
47912;SDS011;33676;51.006;17.180;2024-02-15T10:27:08;9.00;;;8.20;;
47912;SDS011;33676;51.006;17.180;2024-02-15T10:29:38;9.50;;;8.70;;
47912;SDS011;33676;51.006;17.180;2024-02-15T10:32:08;10.00;;;7.60;;
47912;SDS011;33676;51.006;17.180;2024-02-15T10:34:44;10.00;;;8.20;;
47912;SDS011;33676;51.006;17.180;2024-02-15T10:37:15;8.00;;;7.30;;
47912;SDS011;33676;51.006;17.180;2024-02-15T10:40:06;10.00;;;9.10;;
47912;SDS011;33676;51.006;17.180;2024-02-15T10:42:36;8.90;;;8.10;;
47912;SDS011;33676;51.006;17.180;2024-02-15T10:45:05;10.10;;;8.30;;
47912;SDS011;33676;51.006;17.180;2024-02-15T10:47:40;9.70;;;8.60;;
47912;SDS011;33676;51.006;17.180;2024-02-15T10:50:11;11.00;;;9.20;;
47912;SDS011;33676;51.006;17.180;2024-02-15T10:52:58;9.90;;;9.10;;
47912;SDS011;33676;51.006;17.180;2024-02-15T10:55:53;8.90;;;7.90;;
47912;SDS011;33676;51.006;17.180;2024-02-15T10:58:31;16.60;;;13.30;;
47912;SDS011;33676;51.006;17.180;2024-02-15T11:01:06;12.70;;;11.00;;
47912;SDS011;33676;51.006;17.180;2024-02-15T11:03:48;9.40;;;8.60;;
47912;SDS011;33676;51.006;17.180;2024-02-15T11:06:21;8.80;;;8.10;;
47912;SDS011;33676;51.006;17.180;2024-02-15T11:08:53;8.90;;;7.20;;
47912;SDS011;33676;51.006;17.180;2024-02-15T11:11:23;9.30;;;8.20;;
47912;SDS011;33676;51.006;17.180;2024-02-15T11:14:27;8.80;;;7.80;;
47912;SDS011;33676;51.006;17.180;2024-02-15T11:17:02;7.10;;;6.20;;
47912;SDS011;33676;51.006;17.180;2024-02-15T11:22:14;8.70;;;7.40;;
47912;SDS011;33676;51.006;17.180;2024-02-15T11:24:48;10.00;;;7.80;;
47912;SDS011;33676;51.006;17.180;2024-02-15T11:27:28;8.70;;;7.80;;
47912;SDS011;33676;51.006;17.180;2024-02-15T11:30:04;8.80;;;7.40;;
47912;SDS011;33676;51.006;17.180;2024-02-15T11:32:46;7.80;;;7.10;;
47912;SDS011;33676;51.006;17.180;2024-02-15T11:35:23;8.10;;;7.40;;
47912;SDS011;33676;51.006;17.180;2024-02-15T11:37:55;10.70;;;8.20;;
47912;SDS011;33676;51.006;17.180;2024-02-15T11:40:59;9.80;;;8.00;;
47912;SDS011;33676;51.006;17.180;2024-02-15T11:43:51;7.90;;;7.20;;
47912;SDS011;33676;51.006;17.180;2024-02-15T11:46:28;8.30;;;7.60;;
47912;SDS011;33676;51.006;17.180;2024-02-15T11:49:02;8.10;;;6.90;;
47912;SDS011;33676;51.006;17.180;2024-02-15T11:51:34;7.60;;;6.90;;
47912;SDS011;33676;51.006;17.180;2024-02-15T11:54:12;7.90;;;7.10;;
47912;SDS011;33676;51.006;17.180;2024-02-15T11:59:17;7.90;;;7.20;;
47912;SDS011;33676;51.006;17.180;2024-02-15T12:02:01;8.60;;;7.60;;
47912;SDS011;33676;51.006;17.180;2024-02-15T12:04:50;7.60;;;6.90;;
47912;SDS011;33676;51.006;17.180;2024-02-15T12:07:37;9.20;;;7.60;;
47912;SDS011;33676;51.006;17.180;2024-02-15T12:10:24;7.40;;;6.60;;
47912;SDS011;33676;51.006;17.180;2024-02-15T12:13:17;10.60;;;7.30;;
47912;SDS011;33676;51.006;17.180;2024-02-15T12:16:05;8.10;;;7.40;;
47912;SDS011;33676;51.006;17.180;2024-02-15T12:18:52;7.70;;;7.00;;
47912;SDS011;33676;51.006;17.180;2024-02-15T12:21:24;6.20;;;5.60;;
47912;SDS011;33676;51.006;17.180;2024-02-15T12:23:56;6.90;;;6.40;;
47912;SDS011;33676;51.006;17.180;2024-02-15T12:26:25;6.70;;;6.10;;
47912;SDS011;33676;51.006;17.180;2024-02-15T12:28:55;7.40;;;6.70;;
47912;SDS011;33676;51.006;17.180;2024-02-15T12:31:26;6.80;;;6.20;;
47912;SDS011;33676;51.006;17.180;2024-02-15T12:34:05;7.50;;;6.80;;
47912;SDS011;33676;51.006;17.180;2024-02-15T12:36:36;6.20;;;5.70;;
47912;SDS011;33676;51.006;17.180;2024-02-15T12:39:06;6.40;;;5.90;;
47912;SDS011;33676;51.006;17.180;2024-02-15T12:41:49;5.70;;;5.20;;
47912;SDS011;33676;51.006;17.180;2024-02-15T12:44:19;6.40;;;5.90;;
47912;SDS011;33676;51.006;17.180;2024-02-15T12:46:57;6.70;;;5.20;;
47912;SDS011;33676;51.006;17.180;2024-02-15T12:49:31;6.10;;;5.60;;
47912;SDS011;33676;51.006;17.180;2024-02-15T12:52:35;7.60;;;6.00;;
47912;SDS011;33676;51.006;17.180;2024-02-15T12:57:54;5.20;;;4.80;;
47912;SDS011;33676;51.006;17.180;2024-02-15T13:00:27;5.10;;;4.70;;
47912;SDS011;33676;51.006;17.180;2024-02-15T13:03:03;6.80;;;6.10;;
47912;SDS011;33676;51.006;17.180;2024-02-15T13:05:32;6.00;;;5.30;;
47912;SDS011;33676;51.006;17.180;2024-02-15T13:08:02;5.50;;;5.20;;
47912;SDS011;33676;51.006;17.180;2024-02-15T13:10:31;5.80;;;5.30;;
47912;SDS011;33676;51.006;17.180;2024-02-15T13:13:00;9.20;;;8.30;;
47912;SDS011;33676;51.006;17.180;2024-02-15T13:15:29;6.50;;;6.00;;
47912;SDS011;33676;51.006;17.180;2024-02-15T13:18:03;5.80;;;5.30;;
47912;SDS011;33676;51.006;17.180;2024-02-15T13:20:39;6.10;;;5.40;;
47912;SDS011;33676;51.006;17.180;2024-02-15T13:23:11;6.20;;;5.60;;
47912;SDS011;33676;51.006;17.180;2024-02-15T13:25:54;10.20;;;7.20;;
47912;SDS011;33676;51.006;17.180;2024-02-15T13:28:25;4.50;;;4.10;;
47912;SDS011;33676;51.006;17.180;2024-02-15T13:30:54;12.20;;;8.80;;
47912;SDS011;33676;51.006;17.180;2024-02-15T13:33:24;7.90;;;5.40;;
47912;SDS011;33676;51.006;17.180;2024-02-15T13:35:55;7.10;;;5.60;;
47912;SDS011;33676;51.006;17.180;2024-02-15T13:38:24;5.80;;;5.10;;
47912;SDS011;33676;51.006;17.180;2024-02-15T13:40:53;14.30;;;8.80;;
47912;SDS011;33676;51.006;17.180;2024-02-15T13:43:24;10.70;;;8.10;;
47912;SDS011;33676;51.006;17.180;2024-02-15T13:45:53;8.40;;;5.60;;
47912;SDS011;33676;51.006;17.180;2024-02-15T13:48:22;10.10;;;7.30;;
47912;SDS011;33676;51.006;17.180;2024-02-15T13:50:53;6.50;;;4.60;;
47912;SDS011;33676;51.006;17.180;2024-02-15T13:53:22;5.00;;;3.90;;
47912;SDS011;33676;51.006;17.180;2024-02-15T13:55:53;4.70;;;4.30;;
47912;SDS011;33676;51.006;17.180;2024-02-15T13:58:22;5.60;;;4.30;;
47912;SDS011;33676;51.006;17.180;2024-02-15T14:00:51;4.30;;;3.90;;
47912;SDS011;33676;51.006;17.180;2024-02-15T14:03:21;5.60;;;5.10;;
47912;SDS011;33676;51.006;17.180;2024-02-15T14:05:51;5.10;;;4.60;;
47912;SDS011;33676;51.006;17.180;2024-02-15T14:08:20;9.10;;;5.90;;
47912;SDS011;33676;51.006;17.180;2024-02-15T14:10:49;7.40;;;5.70;;
47912;SDS011;33676;51.006;17.180;2024-02-15T14:13:18;5.60;;;4.70;;
47912;SDS011;33676;51.006;17.180;2024-02-15T14:15:50;5.60;;;5.00;;
47912;SDS011;33676;51.006;17.180;2024-02-15T14:18:19;4.60;;;4.20;;
47912;SDS011;33676;51.006;17.180;2024-02-15T14:20:48;5.30;;;4.80;;
47912;SDS011;33676;51.006;17.180;2024-02-15T14:23:18;4.50;;;4.10;;
47912;SDS011;33676;51.006;17.180;2024-02-15T14:25:46;4.30;;;3.90;;
47912;SDS011;33676;51.006;17.180;2024-02-15T14:28:16;5.20;;;4.50;;
47912;SDS011;33676;51.006;17.180;2024-02-15T14:30:47;6.10;;;5.30;;
47912;SDS011;33676;51.006;17.180;2024-02-15T14:33:34;4.80;;;4.00;;
47912;SDS011;33676;51.006;17.180;2024-02-15T14:36:04;3.20;;;2.90;;
47912;SDS011;33676;51.006;17.180;2024-02-15T14:38:34;3.20;;;2.90;;
47912;SDS011;33676;51.006;17.180;2024-02-15T14:41:03;5.60;;;3.80;;
47912;SDS011;33676;51.006;17.180;2024-02-15T14:43:39;5.80;;;4.40;;
47912;SDS011;33676;51.006;17.180;2024-02-15T14:46:08;5.10;;;4.40;;
47912;SDS011;33676;51.006;17.180;2024-02-15T14:48:38;4.90;;;4.50;;
47912;SDS011;33676;51.006;17.180;2024-02-15T14:51:15;6.50;;;4.20;;
47912;SDS011;33676;51.006;17.180;2024-02-15T14:53:48;4.60;;;4.20;;
47912;SDS011;33676;51.006;17.180;2024-02-15T14:56:17;7.10;;;4.80;;
47912;SDS011;33676;51.006;17.180;2024-02-15T14:58:47;4.10;;;3.70;;